createdAt,value
2017-10-18T00:01:42.862Z,8.27
2017-10-18T00:04:45.917Z,8.80
2017-10-18T00:07:47.912Z,8.13
2017-10-18T00:10:51.047Z,7.57
2017-10-18T00:13:53.142Z,7.37
2017-10-18T00:16:55.930Z,7.23
2017-10-18T00:19:58.625Z,6.83
2017-10-18T00:23:00.573Z,7.73
2017-10-18T00:26:02.631Z,7.13
2017-10-18T00:29:05.497Z,6.67
2017-10-18T00:32:07.437Z,5.97
2017-10-18T00:35:09.824Z,7.83
2017-10-18T00:38:11.797Z,7.10
2017-10-18T00:41:13.761Z,7.10
2017-10-18T00:44:16.462Z,6.20
2017-10-18T00:47:19.246Z,7.13
2017-10-18T00:50:21.951Z,8.13
2017-10-18T00:53:24.745Z,6.97
2017-10-18T00:56:26.839Z,6.67
2017-10-18T00:59:29.663Z,6.73
2017-10-18T01:02:31.659Z,7.03
2017-10-18T01:05:34.039Z,7.00
2017-10-18T01:08:36.125Z,6.80
2017-10-18T01:11:38.203Z,6.03
2017-10-18T01:14:40.162Z,7.07
2017-10-18T01:17:43.370Z,7.73
2017-10-18T01:20:45.885Z,8.40
2017-10-18T01:23:48.712Z,8.50
2017-10-18T01:26:50.681Z,8.17
2017-10-18T01:29:52.761Z,8.43
2017-10-18T01:32:56.256Z,8.67
2017-10-18T01:35:59.585Z,9.57
2017-10-18T01:39:02.293Z,8.77
2017-10-18T01:42:05.110Z,8.77
2017-10-18T01:45:07.054Z,8.20
2017-10-18T01:48:09.370Z,8.43
2017-10-18T01:51:12.058Z,8.53
2017-10-18T01:54:15.149Z,9.27
2017-10-18T01:57:17.153Z,8.70
2017-10-18T02:00:20.245Z,8.80
2017-10-18T02:03:22.191Z,8.07
2017-10-18T02:06:24.540Z,8.73
2017-10-18T02:09:27.442Z,7.07
2017-10-18T02:12:30.200Z,7.80
2017-10-18T02:15:32.124Z,8.80
2017-10-18T02:18:35.317Z,8.37
2017-10-18T02:21:37.258Z,9.53
2017-10-18T02:24:39.606Z,8.90
2017-10-18T02:27:42.294Z,8.50
2017-10-18T02:30:44.581Z,8.73
2017-10-18T02:33:46.573Z,9.70
2017-10-18T02:36:48.518Z,11.40
2017-10-18T02:39:50.602Z,10.50
2017-10-18T02:42:52.688Z,9.17
2017-10-18T02:45:54.611Z,9.43
2017-10-18T02:48:56.577Z,9.53
2017-10-18T02:51:58.527Z,9.13
2017-10-18T02:55:01.105Z,10.17
2017-10-18T02:58:03.073Z,12.53
2017-10-18T03:01:05.158Z,13.13
2017-10-18T03:04:07.846Z,12.57
2017-10-18T03:07:10.607Z,10.87
2017-10-18T03:10:12.616Z,11.50
2017-10-18T03:13:15.041Z,13.57
2017-10-18T03:16:17.060Z,13.30
2017-10-18T03:19:19.856Z,14.60
2017-10-18T03:22:21.795Z,13.40
2017-10-18T03:25:24.623Z,13.93
2017-10-18T03:28:26.548Z,13.00
2017-10-18T03:31:28.889Z,13.30
2017-10-18T03:34:30.833Z,12.87
2017-10-18T03:37:32.809Z,15.60
2017-10-18T03:40:36.340Z,16.03
2017-10-18T03:43:38.306Z,16.67
2017-10-18T03:46:40.305Z,14.13
2017-10-18T03:49:42.313Z,13.30
2017-10-18T03:52:45.094Z,16.27
2017-10-18T03:55:47.042Z,15.90
2017-10-18T03:58:49.096Z,13.63
2017-10-18T04:01:51.471Z,13.43
2017-10-18T04:04:54.278Z,14.20
2017-10-18T04:07:56.370Z,14.37
2017-10-18T04:10:58.346Z,14.17
2017-10-18T04:14:01.148Z,13.17
2017-10-18T04:17:03.110Z,15.40
2017-10-18T04:20:05.392Z,15.23
2017-10-18T04:23:07.400Z,15.80
2017-10-18T04:26:10.495Z,14.43
2017-10-18T04:29:13.193Z,14.43
2017-10-18T04:32:15.265Z,14.93
2017-10-18T04:35:17.282Z,14.83
2017-10-18T04:38:19.338Z,14.77
2017-10-18T04:41:21.270Z,14.47
2017-10-18T04:44:23.228Z,14.67
2017-10-18T04:47:25.171Z,14.97
2017-10-18T04:50:27.141Z,14.80
2017-10-18T04:53:29.089Z,16.43
2017-10-18T04:56:31.158Z,15.33
2017-10-18T04:59:33.962Z,16.13
2017-10-18T05:02:36.380Z,15.80
2017-10-18T05:05:38.316Z,16.00
2017-10-18T05:08:40.262Z,15.77
2017-10-18T05:11:42.186Z,15.97
2017-10-18T05:14:44.486Z,16.80
2017-10-18T05:17:46.445Z,15.57
2017-10-18T05:20:48.395Z,17.97
2017-10-18T05:23:50.342Z,19.30
2017-10-18T05:26:52.698Z,17.53
2017-10-18T05:29:54.695Z,17.90
2017-10-18T05:32:57.920Z,18.03
2017-10-18T05:36:00.742Z,18.13
2017-10-18T05:39:03.088Z,17.80
2017-10-18T05:42:05.721Z,18.63
2017-10-18T05:45:07.675Z,18.87
2017-10-18T05:48:10.378Z,18.20
2017-10-18T05:51:12.679Z,18.00
2017-10-18T05:54:15.368Z,19.57
2017-10-18T05:57:17.802Z,18.43
2017-10-18T06:00:19.794Z,18.33
2017-10-18T06:03:22.142Z,18.13
2017-10-18T06:06:25.049Z,17.93
2017-10-18T06:09:28.173Z,17.90
2017-10-18T06:12:30.162Z,18.87
2017-10-18T06:15:32.237Z,18.10
2017-10-18T06:18:35.013Z,16.83
2017-10-18T06:21:36.992Z,16.93
2017-10-18T06:24:38.943Z,16.90
2017-10-18T06:27:41.850Z,18.23
2017-10-18T06:30:43.877Z,18.03
2017-10-18T06:33:45.821Z,18.13
2017-10-18T06:36:47.839Z,17.27
2017-10-18T06:39:50.647Z,15.67
2017-10-18T06:42:52.629Z,16.73
2017-10-18T06:45:54.922Z,15.63
2017-10-18T06:48:57.605Z,15.37
2017-10-18T06:51:59.883Z,15.03
2017-10-18T06:55:01.894Z,16.30
2017-10-18T06:58:04.706Z,14.90
2017-10-18T07:01:07.489Z,14.73
2017-10-18T07:04:09.610Z,15.33
2017-10-18T07:07:11.553Z,14.10
2017-10-18T07:10:13.565Z,14.57
2017-10-18T07:13:16.286Z,16.17
2017-10-18T07:16:18.335Z,14.93
2017-10-18T07:19:21.044Z,14.87
2017-10-18T07:22:23.796Z,15.80
2017-10-18T07:25:25.814Z,15.82
2017-10-18T07:28:28.122Z,15.38
2017-10-18T07:31:30.917Z,15.98
2017-10-18T07:34:33.630Z,15.73
2017-10-18T07:37:36.432Z,16.10
2017-10-18T07:40:38.826Z,17.30
2017-10-18T07:43:40.915Z,17.52
2017-10-18T07:46:42.997Z,18.27
2017-10-18T07:49:45.274Z,16.70
2017-10-18T07:52:48.129Z,16.42
2017-10-18T07:55:50.086Z,15.25
2017-10-18T07:58:52.572Z,14.55
2017-10-18T08:01:54.951Z,15.23
2017-10-18T08:04:58.042Z,13.38
2017-10-18T08:08:00.758Z,13.43
2017-10-18T08:11:02.782Z,13.43
2017-10-18T08:14:04.719Z,13.15
2017-10-18T08:17:07.510Z,13.38
2017-10-18T08:20:09.522Z,12.18
2017-10-18T08:23:11.896Z,12.10
2017-10-18T08:26:14.612Z,11.27
2017-10-18T08:29:16.672Z,11.40
2017-10-18T08:32:18.614Z,10.63
2017-10-18T08:35:20.923Z,10.18
2017-10-18T08:38:22.851Z,9.18
2017-10-18T08:41:24.862Z,9.48
2017-10-18T08:44:26.798Z,9.00
2017-10-18T08:47:29.085Z,9.50
2017-10-18T08:50:31.026Z,10.55
2017-10-18T08:53:33.374Z,9.02
2017-10-18T08:56:36.189Z,8.68
2017-10-18T08:59:38.576Z,8.68
2017-10-18T09:02:41.277Z,8.82
2017-10-18T09:05:44.392Z,8.25
2017-10-18T09:08:47.193Z,8.52
2017-10-18T09:11:50.315Z,7.65
2017-10-18T09:14:52.248Z,7.50
2017-10-18T09:17:54.856Z,7.60
2017-10-18T09:20:56.843Z,8.10
2017-10-18T09:23:59.142Z,7.00
2017-10-18T09:27:01.341Z,7.03
2017-10-18T09:30:04.140Z,6.93
2017-10-18T09:33:06.855Z,7.50
2017-10-18T09:36:09.951Z,7.43
2017-10-18T09:39:11.943Z,6.85
2017-10-18T09:42:15.033Z,6.50
2017-10-18T09:45:17.810Z,7.03
2017-10-18T09:48:20.166Z,7.37
2017-10-18T09:51:22.116Z,7.55
2017-10-18T09:54:25.226Z,7.30
2017-10-18T09:57:27.158Z,7.40
2017-10-18T10:00:29.514Z,6.95
2017-10-18T10:03:32.241Z,7.25
2017-10-18T10:06:34.604Z,6.87
2017-10-18T10:09:37.443Z,7.32
2017-10-18T10:12:40.134Z,6.78
2017-10-18T10:15:42.075Z,6.45
2017-10-18T10:18:44.195Z,6.47
2017-10-18T10:21:46.130Z,6.55
2017-10-18T10:24:48.126Z,6.35
2017-10-18T10:27:50.103Z,5.60
2017-10-18T10:30:52.418Z,5.70
2017-10-18T10:33:55.315Z,6.82
2017-10-18T10:36:58.429Z,6.80
2017-10-18T10:40:01.254Z,7.00
2017-10-18T10:43:03.329Z,7.85
2017-10-18T10:46:05.280Z,7.65
2017-10-18T10:49:07.570Z,7.10
2017-10-18T10:52:11.014Z,7.50
2017-10-18T10:55:13.759Z,7.62
2017-10-18T10:58:15.892Z,6.87
2017-10-18T11:01:19.016Z,7.35
2017-10-18T11:04:20.938Z,7.80
2017-10-18T11:07:23.098Z,7.87
2017-10-18T11:10:25.039Z,7.40
2017-10-18T11:13:27.480Z,8.20
2017-10-18T11:16:29.435Z,9.50
2017-10-18T11:19:32.240Z,8.75
2017-10-18T11:22:35.038Z,9.85
2017-10-18T11:25:37.837Z,10.90
2017-10-18T11:28:40.644Z,10.48
2017-10-18T11:31:43.859Z,10.23
2017-10-18T11:34:45.817Z,9.93
2017-10-18T11:37:47.797Z,9.00
2017-10-18T11:40:49.850Z,8.93
2017-10-18T11:43:51.869Z,8.88
2017-10-18T11:46:53.806Z,9.98
2017-10-18T11:49:56.148Z,9.65
2017-10-18T11:52:58.152Z,9.93
2017-10-18T11:56:00.210Z,10.15
2017-10-18T11:59:02.141Z,10.68
2017-10-18T12:02:04.377Z,10.25
2017-10-18T12:05:06.369Z,10.05
2017-10-18T12:08:08.784Z,10.40
2017-10-18T12:11:10.865Z,10.68
2017-10-18T12:14:13.714Z,10.88
2017-10-18T12:17:15.756Z,11.05
2017-10-18T12:20:17.850Z,10.52
2017-10-18T12:23:20.016Z,11.02
2017-10-18T12:26:23.075Z,11.07
2017-10-18T12:29:25.108Z,12.90
2017-10-18T12:32:28.039Z,13.80
2017-10-18T12:35:29.982Z,12.40
2017-10-18T12:38:32.301Z,13.75
2017-10-18T12:41:34.273Z,14.43
2017-10-18T12:44:37.409Z,15.30
2017-10-18T12:47:39.513Z,14.52
2017-10-18T12:50:41.570Z,14.95
2017-10-18T12:53:43.498Z,13.73
2017-10-18T12:56:45.823Z,14.00
2017-10-18T12:59:47.823Z,13.32
2017-10-18T13:02:51.729Z,13.73
2017-10-18T13:05:53.740Z,13.25
2017-10-18T13:08:56.208Z,12.37
2017-10-18T13:11:58.403Z,12.63
2017-10-18T13:15:01.553Z,13.85
2017-10-18T13:18:03.500Z,12.37
2017-10-18T13:21:06.299Z,11.63
2017-10-18T13:24:08.958Z,12.10
2017-10-18T13:27:11.310Z,11.12
2017-10-18T13:30:13.312Z,10.85
2017-10-18T13:33:15.300Z,11.75
2017-10-18T13:36:17.274Z,11.88
2017-10-18T13:39:19.670Z,11.82
2017-10-18T13:42:21.622Z,11.48
2017-10-18T13:45:24.754Z,10.95
2017-10-18T13:48:26.731Z,11.88
2017-10-18T13:51:28.862Z,11.73
2017-10-18T13:54:32.346Z,11.98
2017-10-18T13:57:34.638Z,12.37
2017-10-18T14:00:36.592Z,12.13
2017-10-18T14:03:38.909Z,12.32
2017-10-18T14:06:40.889Z,12.20
2017-10-18T14:09:42.856Z,13.15
2017-10-18T14:12:44.803Z,13.32
2017-10-18T14:15:47.509Z,13.00
2017-10-18T14:18:49.514Z,12.85
2017-10-18T14:21:51.496Z,14.30
2017-10-18T14:24:53.441Z,13.43
2017-10-18T14:27:55.546Z,13.25
2017-10-18T14:30:57.596Z,13.65
2017-10-18T14:34:00.063Z,14.80
2017-10-18T14:37:02.783Z,14.52
2017-10-18T14:40:05.165Z,13.35
2017-10-18T14:43:07.957Z,14.15
2017-10-18T14:46:09.940Z,14.43
2017-10-18T14:49:12.656Z,14.35
2017-10-18T14:52:15.786Z,14.87
2017-10-18T14:55:17.717Z,14.95
2017-10-18T14:58:19.726Z,13.65
2017-10-18T15:01:22.523Z,14.85
2017-10-18T15:04:26.053Z,14.20
2017-10-18T15:07:28.873Z,14.38
2017-10-18T15:10:31.006Z,15.20
2017-10-18T15:13:32.952Z,15.60
2017-10-18T15:16:35.066Z,15.20
2017-10-18T15:19:37.006Z,15.32
2017-10-18T15:22:39.842Z,14.68
2017-10-18T15:25:41.793Z,18.77
2017-10-18T15:28:43.785Z,16.85
2017-10-18T15:31:46.570Z,17.20
2017-10-18T15:34:48.871Z,16.45
2017-10-18T15:37:50.986Z,17.87
2017-10-18T15:40:53.063Z,18.45
2017-10-18T15:43:55.228Z,18.25
2017-10-18T15:46:58.041Z,18.58
2017-10-18T15:50:00.834Z,18.83
2017-10-18T15:53:04.051Z,20.30
2017-10-18T15:56:06.886Z,19.85
2017-10-18T15:59:08.985Z,20.27
2017-10-18T16:02:11.046Z,19.27
2017-10-18T16:05:12.998Z,19.15
2017-10-18T16:08:15.798Z,20.27
2017-10-18T16:11:18.546Z,19.73
2017-10-18T16:14:20.610Z,19.67
2017-10-18T16:17:23.013Z,19.30
2017-10-18T16:20:24.943Z,19.27
2017-10-18T16:23:26.926Z,20.08
2017-10-18T16:26:29.648Z,19.90
2017-10-18T16:29:32.778Z,20.45
2017-10-18T16:32:35.560Z,18.80
2017-10-18T16:35:38.663Z,19.12
2017-10-18T16:38:40.857Z,18.73
2017-10-18T16:41:43.757Z,17.85
2017-10-18T16:44:46.557Z,18.62
2017-10-18T16:47:48.582Z,18.52
2017-10-18T16:50:51.502Z,17.62
2017-10-18T16:53:53.563Z,17.30
2017-10-18T16:56:55.496Z,16.48
2017-10-18T16:59:58.512Z,18.33
2017-10-18T17:03:00.526Z,17.02
2017-10-18T17:06:03.728Z,16.55
2017-10-18T17:09:06.546Z,17.40
2017-10-18T17:12:08.621Z,16.60
2017-10-18T17:15:11.322Z,15.80
2017-10-18T17:18:14.137Z,17.35
2017-10-18T17:21:16.122Z,16.37
2017-10-18T17:24:18.204Z,17.20
2017-10-18T17:27:20.272Z,16.62
2017-10-18T17:30:23.402Z,16.23
2017-10-18T17:33:25.357Z,16.62
2017-10-18T17:36:28.459Z,16.20
2017-10-18T17:39:30.426Z,17.50
2017-10-18T17:42:32.449Z,16.60
2017-10-18T17:45:34.430Z,15.75
2017-10-18T17:48:37.486Z,16.12
2017-10-18T17:51:39.437Z,16.58
2017-10-18T17:54:41.478Z,16.55
2017-10-18T17:57:43.549Z,16.92
2017-10-18T18:00:45.923Z,16.98
2017-10-18T18:03:47.964Z,16.25
2017-10-18T18:06:51.105Z,18.60
2017-10-18T18:09:53.051Z,19.70
2017-10-18T18:12:55.030Z,16.30
2017-10-18T18:15:57.862Z,15.70
2017-10-18T18:18:59.862Z,16.00
2017-10-18T18:22:01.806Z,15.10
2017-10-18T18:25:04.957Z,15.43
2017-10-18T18:28:07.003Z,15.18
2017-10-18T18:31:10.129Z,15.02
2017-10-18T18:34:12.068Z,13.70
2017-10-18T18:37:15.529Z,14.60
2017-10-18T18:40:17.495Z,15.13
2017-10-18T18:43:20.539Z,14.93
2017-10-18T18:46:22.497Z,15.40
2017-10-18T18:49:25.596Z,14.20
2017-10-18T18:52:28.492Z,15.25
2017-10-18T18:55:30.886Z,15.23
2017-10-18T18:58:32.835Z,15.10
2017-10-18T19:01:34.832Z,14.85
2017-10-18T19:04:36.845Z,14.75
2017-10-18T19:07:39.594Z,14.45
2017-10-18T19:10:41.574Z,14.75
2017-10-18T19:13:43.873Z,15.07
2017-10-18T19:16:45.817Z,14.68
2017-10-18T19:19:48.567Z,14.05
2017-10-18T19:22:50.530Z,14.32
2017-10-18T19:25:52.571Z,13.85
2017-10-18T19:28:55.398Z,13.85
2017-10-18T19:31:57.690Z,15.17
2017-10-18T19:34:59.722Z,13.80
2017-10-18T19:38:01.753Z,14.75
2017-10-18T19:41:04.066Z,14.60
2017-10-18T19:44:06.154Z,14.95
2017-10-18T19:47:08.095Z,14.60
2017-10-18T19:50:10.901Z,14.07
2017-10-18T19:53:13.601Z,13.65
2017-10-18T19:56:16.433Z,13.18
2017-10-18T19:59:18.406Z,13.50
2017-10-18T20:02:20.831Z,12.88
2017-10-18T20:05:22.886Z,14.38
2017-10-18T20:08:24.985Z,14.25
2017-10-18T20:11:26.970Z,13.75
2017-10-18T20:14:29.334Z,12.98
2017-10-18T20:17:32.154Z,12.40
2017-10-18T20:20:35.137Z,12.93
2017-10-18T20:23:37.153Z,13.20
2017-10-18T20:26:39.576Z,12.93
2017-10-18T20:29:41.555Z,13.68
2017-10-18T20:32:43.902Z,13.00
2017-10-18T20:35:46.632Z,14.00
2017-10-18T20:38:49.400Z,13.75
2017-10-18T20:41:52.088Z,13.95
2017-10-18T20:44:54.393Z,15.60
2017-10-18T20:47:57.094Z,15.45
2017-10-18T20:51:00.023Z,15.90
2017-10-18T20:54:01.965Z,15.30
2017-10-18T20:57:04.291Z,15.40
2017-10-18T21:00:06.245Z,14.93
2017-10-18T21:03:08.543Z,14.75
2017-10-18T21:06:11.245Z,15.70
2017-10-18T21:09:14.065Z,15.80
2017-10-18T21:12:16.005Z,15.67
2017-10-18T21:15:18.060Z,16.30
2017-10-18T21:18:20.015Z,15.88
2017-10-18T21:21:22.036Z,14.80
2017-10-18T21:24:24.109Z,15.30
2017-10-18T21:27:26.268Z,16.00
2017-10-18T21:30:29.075Z,17.23
2017-10-18T21:33:31.482Z,18.23
2017-10-18T21:36:33.447Z,17.57
2017-10-18T21:39:36.533Z,18.17
2017-10-18T21:42:38.822Z,18.27
2017-10-18T21:45:41.634Z,17.17
2017-10-18T21:48:43.565Z,17.10
2017-10-18T21:51:45.770Z,18.70
2017-10-18T21:54:47.890Z,20.37
2017-10-18T21:57:50.219Z,20.17
2017-10-18T22:00:52.270Z,19.80
2017-10-18T22:03:54.229Z,19.57
2017-10-18T22:06:56.242Z,18.73
2017-10-18T22:09:59.367Z,18.50
2017-10-18T22:13:01.342Z,18.02
2017-10-18T22:16:04.454Z,18.60
2017-10-18T22:19:07.156Z,18.47
2017-10-18T22:22:09.874Z,18.23
2017-10-18T22:25:12.021Z,22.27
2017-10-18T22:28:14.172Z,19.17
2017-10-18T22:31:16.217Z,20.37
2017-10-18T22:34:19.087Z,17.65
2017-10-18T22:37:21.081Z,18.80
2017-10-18T22:40:23.084Z,18.08
2017-10-18T22:43:25.906Z,18.27
2017-10-18T22:46:28.370Z,20.07
2017-10-18T22:49:31.070Z,18.52
2017-10-18T22:52:34.170Z,17.73
2017-10-18T22:55:36.116Z,18.37
2017-10-18T22:58:38.470Z,20.37
2017-10-18T23:01:40.449Z,21.63
2017-10-18T23:04:43.516Z,21.33
2017-10-18T23:07:45.501Z,21.30
2017-10-18T23:10:48.130Z,21.20
2017-10-18T23:13:50.849Z,21.47
2017-10-18T23:16:53.209Z,23.37
2017-10-18T23:19:55.626Z,22.67
2017-10-18T23:22:58.731Z,23.37
2017-10-18T23:26:01.556Z,24.67
2017-10-18T23:29:03.913Z,23.80
2017-10-18T23:32:06.864Z,24.85
2017-10-18T23:35:08.862Z,24.93
2017-10-18T23:38:10.804Z,25.92
2017-10-18T23:41:13.670Z,26.30
2017-10-18T23:44:15.693Z,25.97
2017-10-18T23:47:18.446Z,26.80
2017-10-18T23:50:20.462Z,25.40
2017-10-18T23:53:22.625Z,27.23
2017-10-18T23:56:25.577Z,27.23
2017-10-18T23:59:27.592Z,27.07
